createdAt,value
2018-05-24T00:00:16.640Z,21.44
2018-05-24T00:02:42.617Z,21.61
2018-05-24T00:05:08.603Z,21.48
2018-05-24T00:07:34.593Z,21.39
2018-05-24T00:10:00.554Z,21.43
2018-05-24T00:12:26.497Z,21.45
2018-05-24T00:14:52.455Z,21.53
2018-05-24T00:17:18.446Z,21.34
2018-05-24T00:19:44.403Z,21.36
2018-05-24T00:22:10.367Z,21.34
2018-05-24T00:24:36.331Z,21.36
2018-05-24T00:27:02.322Z,21.29
2018-05-24T00:29:28.265Z,21.30
2018-05-24T00:31:54.240Z,21.40
2018-05-24T00:34:20.272Z,21.29
2018-05-24T00:36:46.158Z,21.23
2018-05-24T00:39:12.110Z,21.21
2018-05-24T00:41:38.054Z,21.12
2018-05-24T00:44:04.013Z,21.15
2018-05-24T00:46:29.995Z,21.31
2018-05-24T00:48:55.980Z,21.32
2018-05-24T00:51:21.966Z,21.26
2018-05-24T00:53:47.938Z,21.27
2018-05-24T00:56:13.899Z,21.16
2018-05-24T00:58:39.891Z,21.22
2018-05-24T01:01:05.883Z,21.20
2018-05-24T01:03:31.837Z,21.08
2018-05-24T01:05:57.773Z,21.24
2018-05-24T01:08:23.738Z,21.19
2018-05-24T01:10:49.698Z,21.17
2018-05-24T01:13:15.674Z,21.10
2018-05-24T01:15:41.667Z,21.10
2018-05-24T01:18:07.560Z,21.05
2018-05-24T01:20:33.533Z,20.99
2018-05-24T01:22:59.466Z,20.92
2018-05-24T01:25:25.443Z,21.03
2018-05-24T01:27:51.398Z,20.96
2018-05-24T01:30:17.361Z,20.94
2018-05-24T01:32:43.318Z,20.95
2018-05-24T01:35:09.254Z,20.86
2018-05-24T01:37:35.228Z,20.84
2018-05-24T01:40:01.186Z,20.85
2018-05-24T01:42:27.169Z,20.81
2018-05-24T01:44:53.133Z,20.77
2018-05-24T01:47:19.103Z,20.92
2018-05-24T01:49:45.045Z,20.87
2018-05-24T01:52:11.006Z,20.87
2018-05-24T01:54:36.946Z,20.75
2018-05-24T01:57:02.905Z,20.77
2018-05-24T01:59:28.854Z,20.83
2018-05-24T02:01:54.855Z,20.73
2018-05-24T02:04:20.800Z,20.67
2018-05-24T02:06:46.753Z,20.49
2018-05-24T02:09:12.706Z,20.43
2018-05-24T02:11:38.635Z,20.48
2018-05-24T02:14:04.611Z,20.43
2018-05-24T02:16:30.557Z,20.52
2018-05-24T02:18:56.513Z,20.42
2018-05-24T02:21:22.485Z,20.46
2018-05-24T02:23:48.461Z,20.43
2018-05-24T02:26:14.406Z,20.36
2018-05-24T02:28:40.346Z,20.41
2018-05-24T02:31:06.286Z,20.16
2018-05-24T02:33:32.252Z,20.15
2018-05-24T02:35:58.332Z,20.29
2018-05-24T02:38:24.153Z,20.17
2018-05-24T02:40:50.090Z,20.21
2018-05-24T02:43:16.061Z,20.20
2018-05-24T02:45:41.994Z,20.09
2018-05-24T02:48:07.964Z,20.15
2018-05-24T02:50:33.934Z,20.19
2018-05-24T02:52:59.909Z,20.11
2018-05-24T02:55:25.906Z,20.06
2018-05-24T02:57:51.875Z,20.07
2018-05-24T03:00:17.845Z,20.06
2018-05-24T03:02:43.801Z,20.23
2018-05-24T03:05:09.748Z,20.16
2018-05-24T03:07:35.745Z,20.13
2018-05-24T03:10:01.737Z,20.12
2018-05-24T03:12:27.696Z,20.00
2018-05-24T03:14:53.676Z,20.02
2018-05-24T03:17:19.619Z,19.93
2018-05-24T03:19:45.587Z,19.89
2018-05-24T03:22:11.549Z,19.83
2018-05-24T03:24:37.491Z,19.95
2018-05-24T03:27:03.463Z,19.96
2018-05-24T03:29:29.417Z,19.91
2018-05-24T03:31:55.406Z,19.98
2018-05-24T03:34:21.337Z,19.84
2018-05-24T03:36:47.293Z,19.84
2018-05-24T03:39:13.364Z,19.67
2018-05-24T03:41:39.366Z,19.71
2018-05-24T03:44:05.393Z,19.94
2018-05-24T03:46:31.392Z,19.75
2018-05-24T03:48:57.376Z,19.72
2018-05-24T03:51:23.333Z,19.83
2018-05-24T03:53:49.329Z,19.87
2018-05-24T03:56:15.333Z,19.95
2018-05-24T03:58:41.326Z,19.92
2018-05-24T04:01:07.269Z,19.85
2018-05-24T04:03:33.270Z,19.96
2018-05-24T04:05:59.356Z,19.92
2018-05-24T04:08:25.366Z,19.81
2018-05-24T04:10:51.305Z,19.85
2018-05-24T04:13:17.271Z,19.83
2018-05-24T04:15:43.252Z,19.81
2018-05-24T04:18:09.294Z,19.73
2018-05-24T04:20:35.326Z,19.85
2018-05-24T04:23:01.282Z,19.90
2018-05-24T04:25:27.286Z,19.72
2018-05-24T04:27:53.238Z,19.69
2018-05-24T04:30:19.260Z,19.81
2018-05-24T04:32:45.246Z,19.52
2018-05-24T04:35:11.226Z,19.66
2018-05-24T04:37:37.193Z,19.66
2018-05-24T04:40:03.169Z,19.83
2018-05-24T04:42:29.129Z,19.75
2018-05-24T04:44:55.194Z,19.59
2018-05-24T04:47:21.168Z,19.68
2018-05-24T04:49:47.215Z,19.72
2018-05-24T04:52:13.213Z,19.84
2018-05-24T04:54:39.197Z,19.59
2018-05-24T04:57:05.196Z,19.75
2018-05-24T04:59:31.215Z,19.65
2018-05-24T05:01:57.181Z,19.61
2018-05-24T05:04:23.134Z,19.78
2018-05-24T05:06:49.074Z,19.86
2018-05-24T05:09:15.017Z,19.88
2018-05-24T05:11:40.977Z,19.85
2018-05-24T05:14:06.990Z,19.90
2018-05-24T05:16:33.036Z,19.89
2018-05-24T05:18:58.927Z,20.01
2018-05-24T05:21:24.916Z,20.22
2018-05-24T05:23:50.885Z,20.09
2018-05-24T05:26:16.857Z,20.13
2018-05-24T05:28:42.861Z,19.96
2018-05-24T05:31:08.811Z,20.18
2018-05-24T05:33:34.800Z,20.15
2018-05-24T05:36:00.753Z,20.17
2018-05-24T05:38:26.777Z,20.39
2018-05-24T05:40:52.721Z,20.44
2018-05-24T05:43:18.681Z,20.61
2018-05-24T05:45:44.659Z,20.83
2018-05-24T05:48:10.628Z,20.87
2018-05-24T05:50:36.666Z,21.09
2018-05-24T05:53:02.616Z,21.25
2018-05-24T05:55:28.606Z,21.44
2018-05-24T05:57:54.565Z,21.20
2018-05-24T06:00:20.528Z,21.14
2018-05-24T06:02:46.513Z,21.32
2018-05-24T06:05:12.486Z,20.99
2018-05-24T06:07:38.477Z,21.20
2018-05-24T06:10:04.428Z,20.93
2018-05-24T06:12:30.361Z,21.03
2018-05-24T06:14:56.316Z,20.91
2018-05-24T06:17:22.335Z,20.63
2018-05-24T06:19:48.311Z,20.89
2018-05-24T06:22:14.294Z,20.68
2018-05-24T06:24:40.253Z,20.82
2018-05-24T06:27:06.221Z,20.74
2018-05-24T06:29:32.187Z,20.37
2018-05-24T06:31:58.131Z,20.66
2018-05-24T06:34:24.094Z,20.77
2018-05-24T06:36:50.081Z,20.67
2018-05-24T06:39:16.036Z,20.77
2018-05-24T06:41:41.987Z,20.63
2018-05-24T06:44:07.973Z,20.60
2018-05-24T06:46:34.000Z,20.98
2018-05-24T06:48:59.920Z,20.85
2018-05-24T06:51:25.889Z,21.11
2018-05-24T06:53:51.942Z,21.22
2018-05-24T06:56:17.873Z,21.45
2018-05-24T06:58:43.876Z,21.94
2018-05-24T07:01:09.889Z,21.91
2018-05-24T07:03:35.937Z,21.67
2018-05-24T07:06:01.974Z,21.83
2018-05-24T07:08:27.911Z,21.53
2018-05-24T07:10:53.926Z,21.46
2018-05-24T07:13:19.898Z,21.85
2018-05-24T07:15:45.896Z,21.72
2018-05-24T07:18:11.898Z,21.93
2018-05-24T07:20:37.878Z,22.04
2018-05-24T07:23:03.859Z,22.05
2018-05-24T07:25:29.856Z,22.56
2018-05-24T07:27:55.872Z,22.65
2018-05-24T07:30:21.882Z,22.87
2018-05-24T07:32:47.896Z,23.61
2018-05-24T07:35:13.879Z,23.99
2018-05-24T07:37:39.870Z,24.29
2018-05-24T07:40:05.801Z,23.91
2018-05-24T07:42:31.789Z,23.57
2018-05-24T07:44:57.774Z,23.98
2018-05-24T07:47:23.726Z,23.69
2018-05-24T07:49:49.670Z,24.40
2018-05-24T07:52:15.620Z,24.65
2018-05-24T07:54:41.603Z,24.65
2018-05-24T07:57:07.602Z,24.36
2018-05-24T07:59:33.557Z,25.17
2018-05-24T08:01:59.524Z,25.14
2018-05-24T08:04:25.482Z,25.19
2018-05-24T08:06:51.473Z,25.12
2018-05-24T08:09:17.459Z,25.00
2018-05-24T08:11:43.407Z,24.98
2018-05-24T08:14:09.369Z,24.15
2018-05-24T08:16:35.363Z,24.14
2018-05-24T08:19:01.330Z,23.43
2018-05-24T08:21:27.290Z,23.29
2018-05-24T08:23:53.229Z,22.96
2018-05-24T08:26:19.263Z,22.80
2018-05-24T08:28:45.216Z,22.89
2018-05-24T08:31:11.202Z,23.02
2018-05-24T08:33:37.160Z,23.19
2018-05-24T08:36:03.163Z,23.18
2018-05-24T08:38:29.124Z,23.23
2018-05-24T08:40:55.150Z,22.97
2018-05-24T08:43:21.171Z,23.11
2018-05-24T08:45:47.162Z,23.23
2018-05-24T08:48:13.136Z,23.19
2018-05-24T08:50:39.113Z,23.12
2018-05-24T08:53:05.073Z,22.96
2018-05-24T08:55:31.028Z,23.00
2018-05-24T08:57:56.981Z,23.15
2018-05-24T09:00:22.937Z,23.29
2018-05-24T09:02:48.873Z,23.10
2018-05-24T09:05:14.867Z,23.11
2018-05-24T09:07:40.820Z,23.14
2018-05-24T09:10:06.787Z,23.09
2018-05-24T09:12:32.730Z,23.18
2018-05-24T09:14:58.742Z,23.44
2018-05-24T09:17:24.707Z,23.52
2018-05-24T09:19:50.701Z,23.42
2018-05-24T09:22:16.657Z,23.29
2018-05-24T09:24:42.612Z,23.47
2018-05-24T09:27:08.612Z,23.61
2018-05-24T09:29:34.552Z,23.59
2018-05-24T09:32:00.536Z,23.58
2018-05-24T09:34:26.629Z,23.42
2018-05-24T09:36:52.595Z,23.66
2018-05-24T09:39:18.582Z,23.52
2018-05-24T09:41:44.597Z,23.53
2018-05-24T09:44:10.616Z,23.54
2018-05-24T09:46:36.604Z,23.60
2018-05-24T09:49:02.550Z,23.63
2018-05-24T09:51:28.559Z,23.62
2018-05-24T09:53:54.572Z,23.61
2018-05-24T09:56:20.514Z,23.67
2018-05-24T09:58:46.484Z,23.68
2018-05-24T10:01:12.451Z,23.64
2018-05-24T10:03:38.417Z,23.66
2018-05-24T10:06:04.361Z,23.65
2018-05-24T10:08:30.306Z,23.67
2018-05-24T10:10:56.259Z,23.79
2018-05-24T10:13:22.223Z,23.77
2018-05-24T10:15:48.180Z,23.81
2018-05-24T10:18:14.162Z,23.97
2018-05-24T10:20:40.185Z,23.92
2018-05-24T10:23:06.178Z,23.82
2018-05-24T10:25:32.153Z,23.81
2018-05-24T10:27:58.097Z,23.85
2018-05-24T10:30:24.077Z,23.86
2018-05-24T10:32:50.031Z,23.75
2018-05-24T10:35:15.993Z,23.72
2018-05-24T10:37:41.960Z,23.76
2018-05-24T10:40:07.913Z,23.84
2018-05-24T10:42:33.893Z,23.78
2018-05-24T10:44:59.886Z,23.79
2018-05-24T10:47:25.867Z,23.84
2018-05-24T10:49:51.876Z,23.83
2018-05-24T10:52:17.851Z,23.84
2018-05-24T10:54:43.830Z,23.79
2018-05-24T10:57:09.820Z,23.89
2018-05-24T10:59:35.810Z,23.86
2018-05-24T11:02:02.320Z,23.76
2018-05-24T11:04:29.164Z,23.71
2018-05-24T11:06:55.138Z,23.81
2018-05-24T11:09:21.117Z,23.81
2018-05-24T11:11:47.148Z,23.86
2018-05-24T11:14:13.090Z,23.88
2018-05-24T11:16:39.041Z,23.86
2018-05-24T11:19:04.997Z,23.78
2018-05-24T11:21:30.979Z,23.82
2018-05-24T11:23:56.972Z,23.93
2018-05-24T11:26:22.945Z,24.00
2018-05-24T11:28:48.885Z,23.94
2018-05-24T11:31:14.815Z,23.91
2018-05-24T11:33:40.782Z,24.00
2018-05-24T11:36:06.754Z,23.98
2018-05-24T11:38:32.705Z,24.04
2018-05-24T11:40:58.684Z,23.99
2018-05-24T11:43:24.708Z,23.94
2018-05-24T11:45:50.631Z,24.01
2018-05-24T11:48:16.590Z,24.05
2018-05-24T11:50:42.566Z,24.11
2018-05-24T11:53:08.565Z,24.02
2018-05-24T11:55:34.583Z,24.19
2018-05-24T11:58:00.591Z,23.94
2018-05-24T12:00:26.574Z,24.04
2018-05-24T12:02:52.564Z,23.99
2018-05-24T12:05:18.559Z,23.95
2018-05-24T12:07:44.591Z,23.98
2018-05-24T12:10:10.555Z,24.00
2018-05-24T12:12:36.513Z,24.01
2018-05-24T12:15:02.515Z,24.07
2018-05-24T12:17:28.468Z,24.03
2018-05-24T12:19:54.449Z,24.06
2018-05-24T12:22:20.421Z,24.07
2018-05-24T12:24:46.417Z,23.98
2018-05-24T12:27:12.400Z,24.01
2018-05-24T12:29:38.439Z,23.98
2018-05-24T12:32:04.428Z,23.96
2018-05-24T12:34:30.381Z,23.96
2018-05-24T12:36:56.355Z,23.96
2018-05-24T12:39:22.318Z,24.07
2018-05-24T12:41:48.317Z,24.17
2018-05-24T12:44:14.284Z,24.19
2018-05-24T12:46:40.263Z,24.05
2018-05-24T12:49:06.304Z,24.03
2018-05-24T12:51:32.186Z,23.88
2018-05-24T12:53:58.181Z,24.09
2018-05-24T12:56:24.156Z,23.99
2018-05-24T12:58:50.134Z,24.10
2018-05-24T13:01:16.070Z,23.96
2018-05-24T13:03:42.065Z,23.90
2018-05-24T13:06:08.031Z,23.91
2018-05-24T13:08:34.033Z,23.90
2018-05-24T13:10:59.990Z,23.91
2018-05-24T13:13:26.011Z,23.94
2018-05-24T13:15:51.986Z,23.98
2018-05-24T13:18:17.938Z,23.96
2018-05-24T13:20:43.907Z,24.15
2018-05-24T13:23:09.867Z,24.14
2018-05-24T13:25:35.833Z,24.16
2018-05-24T13:28:01.813Z,23.99
2018-05-24T13:30:27.783Z,23.92
2018-05-24T13:32:53.786Z,23.95
2018-05-24T13:35:19.750Z,24.05
2018-05-24T13:37:45.705Z,24.05
2018-05-24T13:40:11.691Z,24.09
2018-05-24T13:42:37.666Z,24.10
2018-05-24T13:45:03.654Z,24.13
2018-05-24T13:47:29.602Z,24.30
2018-05-24T13:49:55.578Z,24.38
2018-05-24T13:52:21.547Z,24.30
2018-05-24T13:54:47.514Z,24.23
2018-05-24T13:57:13.480Z,24.24
2018-05-24T13:59:39.492Z,24.26
2018-05-24T14:02:05.452Z,24.17
2018-05-24T14:04:31.417Z,24.03
2018-05-24T14:06:57.382Z,23.98
2018-05-24T14:09:23.402Z,23.98
2018-05-24T14:11:49.355Z,23.95
2018-05-24T14:14:15.337Z,23.99
2018-05-24T14:16:41.322Z,24.01
2018-05-24T14:19:07.350Z,23.95
2018-05-24T14:21:33.335Z,23.96
2018-05-24T14:23:59.305Z,23.93
2018-05-24T14:26:25.300Z,23.96
2018-05-24T14:28:51.291Z,23.90
2018-05-24T14:31:17.249Z,23.85
2018-05-24T14:33:43.201Z,23.90
2018-05-24T14:36:09.157Z,23.89
2018-05-24T14:38:35.116Z,23.85
2018-05-24T14:41:01.150Z,23.88
2018-05-24T14:43:27.122Z,23.85
2018-05-24T14:45:53.214Z,23.83
2018-05-24T14:48:19.170Z,23.89
2018-05-24T14:50:45.117Z,23.85
2018-05-24T14:53:11.107Z,23.84
2018-05-24T14:55:37.145Z,23.86
2018-05-24T14:58:03.078Z,23.86
2018-05-24T15:00:29.080Z,23.76
2018-05-24T15:02:55.020Z,23.83
2018-05-24T15:05:21.013Z,23.85
2018-05-24T15:07:46.992Z,23.84
2018-05-24T15:10:13.017Z,23.82
2018-05-24T15:12:38.952Z,23.87
2018-05-24T15:15:04.894Z,23.76
2018-05-24T15:17:30.847Z,23.73
2018-05-24T15:19:56.853Z,23.69
2018-05-24T15:22:22.820Z,23.71
2018-05-24T15:24:48.814Z,23.69
2018-05-24T15:27:14.794Z,23.70
2018-05-24T15:29:40.816Z,23.74
2018-05-24T15:32:06.801Z,23.73
2018-05-24T15:34:32.757Z,23.77
2018-05-24T15:36:58.721Z,23.73
2018-05-24T15:39:24.696Z,23.76
2018-05-24T15:41:50.690Z,23.83
2018-05-24T15:44:17.130Z,23.71
2018-05-24T15:46:43.121Z,23.72
2018-05-24T15:49:09.078Z,23.71
2018-05-24T15:51:35.056Z,23.74
2018-05-24T15:54:01.012Z,23.74
2018-05-24T15:56:26.974Z,23.71
2018-05-24T15:58:52.939Z,23.70
2018-05-24T16:01:18.897Z,23.67
2018-05-24T16:03:44.902Z,23.60
2018-05-24T16:06:10.886Z,23.63
2018-05-24T16:08:36.860Z,23.61
2018-05-24T16:11:02.831Z,23.70
2018-05-24T16:13:28.801Z,23.64
2018-05-24T16:15:54.793Z,23.61
2018-05-24T16:18:20.747Z,23.63
2018-05-24T16:20:46.705Z,23.76
2018-05-24T16:23:12.845Z,23.64
2018-05-24T16:25:38.813Z,23.58
2018-05-24T16:28:04.793Z,23.61
2018-05-24T16:30:30.787Z,23.54
2018-05-24T16:32:56.753Z,23.49
2018-05-24T16:35:22.761Z,23.45
2018-05-24T16:37:48.787Z,23.50
2018-05-24T16:40:14.831Z,23.42
2018-05-24T16:42:40.788Z,23.41
2018-05-24T16:45:06.803Z,23.55
2018-05-24T16:47:32.861Z,23.57
2018-05-24T16:49:58.813Z,23.67
2018-05-24T16:52:24.809Z,23.67
2018-05-24T16:54:50.773Z,23.68
2018-05-24T16:57:16.740Z,23.74
2018-05-24T16:59:42.691Z,23.74
2018-05-24T17:02:08.654Z,23.73
2018-05-24T17:04:34.617Z,23.74
2018-05-24T17:07:00.611Z,23.68
2018-05-24T17:09:26.555Z,23.58
2018-05-24T17:11:52.513Z,23.50
2018-05-24T17:14:18.470Z,23.58
2018-05-24T17:19:16.862Z,23.54
2018-05-24T17:21:42.918Z,23.43
2018-05-24T17:24:08.891Z,23.37
2018-05-24T17:26:34.847Z,23.41
2018-05-24T17:29:00.776Z,23.48
2018-05-24T17:31:26.764Z,23.47
2018-05-24T17:33:52.728Z,23.42
2018-05-24T17:36:18.745Z,23.34
2018-05-24T17:38:44.733Z,23.33
2018-05-24T17:41:10.754Z,23.31
2018-05-24T17:43:36.707Z,23.45
2018-05-24T17:46:02.741Z,23.44
2018-05-24T17:48:28.867Z,23.43
2018-05-24T17:50:54.929Z,23.37
2018-05-24T17:53:20.962Z,23.37
2018-05-24T17:55:47.005Z,23.39
2018-05-24T17:58:12.982Z,23.40
2018-05-24T18:00:38.932Z,23.35
2018-05-24T18:03:04.951Z,23.33
2018-05-24T18:05:30.927Z,23.30
2018-05-24T18:07:56.979Z,23.30
2018-05-24T18:10:22.924Z,23.19
2018-05-24T18:12:48.894Z,23.20
2018-05-24T18:15:14.864Z,23.18
2018-05-24T18:17:40.860Z,23.05
2018-05-24T18:20:06.844Z,23.06
2018-05-24T18:22:32.821Z,23.09
2018-05-24T18:24:58.852Z,23.19
2018-05-24T18:27:24.874Z,23.15
2018-05-24T18:29:51.015Z,23.13
2018-05-24T18:32:17.037Z,23.07
2018-05-24T18:34:43.017Z,23.07
2018-05-24T18:37:09.027Z,23.05
2018-05-24T18:39:34.996Z,23.05
2018-05-24T18:42:01.000Z,23.00
2018-05-24T18:44:27.037Z,22.93
2018-05-24T18:46:53.034Z,22.91
2018-05-24T18:49:19.046Z,22.97
2018-05-24T18:51:45.030Z,23.01
2018-05-24T18:54:11.001Z,22.95
2018-05-24T18:56:37.045Z,23.00
2018-05-24T18:59:03.062Z,22.99
2018-05-24T19:01:29.039Z,23.02
2018-05-24T19:03:55.046Z,22.95
2018-05-24T19:06:21.091Z,23.05
2018-05-24T19:08:47.117Z,22.95
2018-05-24T19:11:13.100Z,22.92
2018-05-24T19:13:39.083Z,22.74
2018-05-24T19:16:05.066Z,22.92
2018-05-24T19:18:31.027Z,22.88
2018-05-24T19:20:57.017Z,22.87
2018-05-24T19:23:23.038Z,22.91
2018-05-24T19:25:49.057Z,22.84
2018-05-24T19:28:15.045Z,22.91
2018-05-24T19:30:41.050Z,22.89
2018-05-24T19:33:07.109Z,22.95
2018-05-24T19:35:33.136Z,22.98
2018-05-24T19:37:59.133Z,22.94
2018-05-24T19:40:25.075Z,22.98
2018-05-24T19:42:51.046Z,22.99
2018-05-24T19:45:17.159Z,22.92
2018-05-24T19:47:43.146Z,22.90
2018-05-24T19:50:09.179Z,22.93
2018-05-24T19:52:35.186Z,22.84
2018-05-24T19:55:01.185Z,22.98
2018-05-24T19:57:27.180Z,22.87
2018-05-24T19:59:53.161Z,22.79
2018-05-24T20:02:19.125Z,22.70
2018-05-24T20:04:45.227Z,22.66
2018-05-24T20:07:11.281Z,22.72
2018-05-24T20:09:37.309Z,22.67
2018-05-24T20:12:03.300Z,22.71
2018-05-24T20:14:29.292Z,22.55
2018-05-24T20:16:55.301Z,22.49
2018-05-24T20:19:21.305Z,22.35
2018-05-24T20:21:47.312Z,22.39
2018-05-24T20:24:13.354Z,22.41
2018-05-24T20:26:39.404Z,22.31
2018-05-24T20:29:05.425Z,22.25
2018-05-24T20:31:31.456Z,22.21
2018-05-24T20:33:57.476Z,22.38
2018-05-24T20:36:23.503Z,22.23
2018-05-24T20:38:49.567Z,22.23
2018-05-24T20:41:15.572Z,22.08
2018-05-24T20:43:41.592Z,22.00
2018-05-24T20:46:07.608Z,22.09
2018-05-24T20:48:33.668Z,22.06
2018-05-24T20:50:59.686Z,21.96
2018-05-24T20:53:25.712Z,21.94
2018-05-24T20:55:51.739Z,21.88
2018-05-24T20:58:17.734Z,21.87
2018-05-24T21:00:43.728Z,21.87
2018-05-24T21:03:09.765Z,21.83
2018-05-24T21:05:35.782Z,21.71
2018-05-24T21:08:01.801Z,21.66
2018-05-24T21:10:27.809Z,21.70
2018-05-24T21:12:53.807Z,21.64
2018-05-24T21:15:19.834Z,21.80
2018-05-24T21:17:45.872Z,21.77
2018-05-24T21:20:11.894Z,21.77
2018-05-24T21:22:37.920Z,21.59
2018-05-24T21:25:03.940Z,21.64
2018-05-24T21:27:29.938Z,21.67
2018-05-24T21:29:55.956Z,21.51
2018-05-24T21:32:21.970Z,21.47
2018-05-24T21:34:47.976Z,21.52
2018-05-24T21:37:13.964Z,21.43
2018-05-24T21:39:40.118Z,21.60
2018-05-24T21:42:06.113Z,21.58
2018-05-24T21:44:32.117Z,21.36
2018-05-24T21:46:58.106Z,21.39
2018-05-24T21:49:24.128Z,21.25
2018-05-24T21:51:50.130Z,21.24
2018-05-24T21:54:16.146Z,21.26
2018-05-24T21:56:42.142Z,21.22
2018-05-24T21:59:08.168Z,21.30
2018-05-24T22:01:34.200Z,21.19
2018-05-24T22:04:00.231Z,21.09
2018-05-24T22:06:26.260Z,21.11
2018-05-24T22:08:52.319Z,21.16
2018-05-24T22:11:18.317Z,21.12
2018-05-24T22:13:44.329Z,21.41
2018-05-24T22:16:10.309Z,21.20
2018-05-24T22:18:36.305Z,21.18
2018-05-24T22:21:02.332Z,21.20
2018-05-24T22:23:28.335Z,21.10
2018-05-24T22:25:54.343Z,21.02
2018-05-24T22:28:20.361Z,21.12
2018-05-24T22:33:18.863Z,21.10
2018-05-24T22:35:44.864Z,20.95
2018-05-24T22:38:10.872Z,20.96
2018-05-24T22:40:36.908Z,20.94
2018-05-24T22:43:02.904Z,20.91
2018-05-24T22:45:28.940Z,20.92
2018-05-24T22:47:54.975Z,20.82
2018-05-24T22:50:20.966Z,20.92
2018-05-24T22:52:46.983Z,20.87
2018-05-24T22:55:12.972Z,20.83
2018-05-24T22:57:38.957Z,20.79
2018-05-24T23:00:04.959Z,20.57
2018-05-24T23:02:30.993Z,20.55
2018-05-24T23:04:57.019Z,20.46
2018-05-24T23:07:23.072Z,20.30
2018-05-24T23:09:49.062Z,20.10
2018-05-24T23:12:15.068Z,20.23
2018-05-24T23:14:41.088Z,20.33
2018-05-24T23:17:07.107Z,20.11
2018-05-24T23:19:33.121Z,20.10
2018-05-24T23:21:59.113Z,19.84
2018-05-24T23:24:25.112Z,20.01
2018-05-24T23:26:51.124Z,19.96
2018-05-24T23:29:17.143Z,19.80
2018-05-24T23:31:43.143Z,19.74
2018-05-24T23:34:09.148Z,19.77
2018-05-24T23:36:35.158Z,19.88
2018-05-24T23:39:01.136Z,19.85
2018-05-24T23:41:27.136Z,20.07
2018-05-24T23:43:53.140Z,19.89
2018-05-24T23:46:19.167Z,19.95
2018-05-24T23:48:45.162Z,20.00
2018-05-24T23:51:11.193Z,19.85
2018-05-24T23:53:37.203Z,19.97
2018-05-24T23:56:03.228Z,19.85
2018-05-24T23:58:29.248Z,19.89
